Time;durP1;ratioP1;P1;durP2;ratioP2;P2;SDS_P1;SDS_P2;PMS_P1;PMS_P2;Temp;Humidity;BMP_temperature;BMP_pressure;BME280_temperature;BME280_humidity;BME280_pressure;Samples;Min_cycle;Max_cycle;Signal;HPM_P1;HPM_P2
2022/08/27 00:01:30;;;;;;;;;;;;;;;-155.54;100.00;57697.75;5001751;28;19976;-62
2022/08/27 00:03:55;;;;;;;;;;;;;;;-155.54;100.00;57697.75;5001153;28;19921;-62
2022/08/27 00:06:20;;;;;;;;;;;;;;;-155.54;100.00;57697.75;4998214;28;19932;-62
2022/08/27 00:08:46;;;;;;;;;;;;;;;-155.54;100.00;57697.75;4997146;28;20394;-62
2022/08/27 00:11:11;;;;;;;;;;;;;;;-155.54;100.00;57697.75;4998354;28;20129;-61
2022/08/27 00:13:37;;;;;;;;;;;;;;;-155.54;100.00;57697.75;4999198;28;19928;-62
2022/08/27 00:16:03;;;;;;;;;;;;;;;-155.54;100.00;57697.75;4998906;28;20628;-63
2022/08/27 00:18:28;;;;;;;;;;;;;;;-155.54;100.00;57697.75;4998607;28;19921;-63
2022/08/27 00:20:53;;;;;;;;;;;;;;;-155.54;100.00;57697.75;4999012;28;19979;-63
2022/08/27 00:23:18;;;;;;;;;;;;;;;-155.54;100.00;57697.75;4999976;28;19976;-61
2022/08/27 00:25:44;;;;;;;;;;;;;;;-155.54;100.00;57697.75;4997298;28;19956;-60
2022/08/27 00:28:09;;;;;;;;;;;;;;;-155.54;100.00;57697.75;4996525;28;19922;-61
2022/08/27 00:30:34;;;;;;;;;;;;;;;-155.54;100.00;57697.75;4998969;28;20438;-60
2022/08/27 00:32:59;;;;;;;;;;;;;;;-155.54;100.00;57697.75;4999141;28;19922;-61
2022/08/27 00:35:25;;;;;;;;;;;;;;;-155.54;100.00;57697.75;4998896;28;20015;-62
2022/08/27 00:37:51;;;;;;;;;;;;;;;-155.54;100.00;57697.75;4998521;28;19957;-63
2022/08/27 00:40:17;;;;;;;;;;;;;;;-155.54;100.00;57697.75;4995447;28;19995;-63
2022/08/27 00:42:44;;;;;;;;;;;;;;;-155.54;100.00;57697.75;4996650;28;19937;-62
2022/08/27 00:45:10;;;;;;;;;;;;;;;-155.54;100.00;57697.75;4999467;28;20601;-63
2022/08/27 00:47:36;;;;;;;;;;;;;;;-155.54;100.00;57697.75;5000759;28;19917;-63
2022/08/27 00:50:06;;;;;;;;;;;;;;;-155.54;100.00;57697.75;4998410;28;20083;-61
2022/08/27 00:52:33;;;;;;;;;;;;;;;-155.54;100.00;57697.75;4980340;28;19974;-60
2022/08/27 00:55:04;;;;;;;;;;;;;;;-155.54;100.00;57697.75;4981298;28;20584;-62
2022/08/27 00:57:29;;;;;;;;;;;;;;;-155.54;100.00;57697.75;5004662;28;19993;-61
2022/08/27 00:59:55;;;;;;;;;;;;;;;-155.54;100.00;57697.75;4987142;28;19970;-62
2022/08/27 01:02:20;;;;;;;;;;;;;;;-155.54;100.00;57697.75;5004466;28;20541;-62
2022/08/27 01:04:47;;;;;;;;;;;;;;;-155.54;100.00;57697.75;5004452;28;20419;-62
2022/08/27 01:07:13;;;;;;;;;;;;;;;-155.54;100.00;57697.75;4985513;28;20255;-62
2022/08/27 01:09:39;;;;;;;;;;;;;;;-155.54;100.00;57697.75;5002703;28;20416;-62
2022/08/27 01:12:04;;;;;;;;;;;;;;;-155.54;100.00;57697.75;4999166;28;19968;-62
2022/08/27 01:14:29;;;;;;;;;;;;;;;-155.54;100.00;57697.75;4997464;28;19994;-62
2022/08/27 01:16:55;;;;;;;;;;;;;;;-155.54;100.00;57697.75;4999310;28;19970;-61
2022/08/27 01:19:20;;;;;;;;;;;;;;;-155.54;100.00;57697.75;4983841;28;20249;-61
2022/08/27 01:21:52;;;;;;;;;;;;;;;-155.54;100.00;57697.75;5001750;28;20243;-62
2022/08/27 01:24:34;;;;;;;;;;;;;;;-155.54;100.00;57697.75;4983208;28;20037;-62
2022/08/27 01:27:00;;;;;;;;;;;;;;;-155.54;100.00;57697.75;5000471;28;20116;-61
2022/08/27 01:29:25;;;;;;;;;;;;;;;-155.54;100.00;57697.75;4980547;28;20068;-60
2022/08/27 01:31:50;;;;;;;;;;;;;;;-155.54;100.00;57697.75;5000083;28;20013;-61
2022/08/27 01:34:15;;;;;;;;;;;;;;;-155.54;100.00;57697.75;5001899;28;20043;-62
2022/08/27 01:36:41;;;;;;;;;;;;;;;-155.54;100.00;57697.75;5000013;28;20065;-61
2022/08/27 01:39:06;;;;;;;;;;;;;;;-155.54;100.00;57697.75;5001033;28;20441;-61
2022/08/27 01:41:32;;;;;;;;;;;;;;;-155.54;100.00;57697.75;5001763;28;19994;-62
2022/08/27 01:43:57;;;;;;;;;;;;;;;-155.54;100.00;57697.75;5003131;28;19993;-62
2022/08/27 01:46:23;;;;;;;;;;;;;;;-155.54;100.00;57697.75;4997276;28;20012;-62
2022/08/27 01:48:48;;;;;;;;;;;;;;;-155.54;100.00;57697.75;4999775;28;20211;-62
2022/08/27 01:51:13;;;;;;;;;;;;;;;-155.54;100.00;57697.75;5000554;28;20502;-63
2022/08/27 01:53:38;;;;;;;;;;;;;;;-155.54;100.00;57697.75;5002361;28;20420;-61
2022/08/27 01:56:04;;;;;;;;;;;;;;;-155.54;100.00;57697.75;5000739;28;19974;-61
2022/08/27 01:58:29;;;;;;;;;;;;;;;-155.54;100.00;57697.75;5000703;28;20001;-61
2022/08/27 02:00:55;;;;;;;;;;;;;;;-155.54;100.00;57697.75;4999374;28;19969;-60
2022/08/27 02:03:20;;;;;;;;;;;;;;;-155.54;100.00;57697.75;5003259;28;19986;-60
2022/08/27 02:05:46;;;;;;;;;;;;;;;-155.54;100.00;57697.75;5003027;28;19995;-62
2022/08/27 02:08:12;;;;;;;;;;;;;;;-155.54;100.00;57697.75;5003781;28;20577;-62
2022/08/27 02:10:37;;;;;;;;;;;;;;;-155.54;100.00;57697.75;5002112;28;20442;-62
2022/08/27 02:13:05;;;;;;;;;;;;;;;-155.54;100.00;57697.75;5002697;28;20637;-62
2022/08/27 02:15:31;;;;;;;;;;;;;;;-155.54;100.00;57697.75;5000541;28;19974;-62
2022/08/27 02:17:56;;;;;;;;;;;;;;;-155.54;100.00;57697.75;4980838;28;20039;-61
2022/08/27 02:20:21;;;;;;;;;;;;;;;-155.54;100.00;57697.75;4981868;28;19998;-61
2022/08/27 02:22:47;;;;;;;;;;;;;;;-155.54;100.00;57697.75;5000978;28;19997;-61
2022/08/27 02:25:12;;;;;;;;;;;;;;;-155.54;100.00;57697.75;5000248;28;20056;-61
2022/08/27 02:27:38;;;;;;;;;;;;;;;-155.54;100.00;57697.75;5003542;28;20080;-61
2022/08/27 02:30:04;;;;;;;;;;;;;;;-155.54;100.00;57697.75;4993732;28;19986;-62
2022/08/27 02:32:29;;;;;;;;;;;;;;;-155.54;100.00;57697.75;5003445;28;19996;-62
2022/08/27 02:34:55;;;;;;;;;;;;;;;-155.54;100.00;57697.75;5001989;28;20025;-61
2022/08/27 02:37:21;;;;;;;;;;;;;;;-155.54;100.00;57697.75;5002550;28;20301;-61
2022/08/27 02:39:46;;;;;;;;;;;;;;;-155.54;100.00;57697.75;5001443;28;19982;-61
2022/08/27 02:42:11;;;;;;;;;;;;;;;-155.54;100.00;57697.75;5001663;28;20147;-61
2022/08/27 02:44:36;;;;;;;;;;;;;;;-155.54;100.00;57697.75;5002121;28;20083;-62
2022/08/27 02:47:02;;;;;;;;;;;;;;;-155.54;100.00;57697.75;4998555;28;20310;-63
2022/08/27 02:49:28;;;;;;;;;;;;;;;-155.54;100.00;57697.75;5000873;28;19997;-60
2022/08/27 02:51:55;;;;;;;;;;;;;;;-155.54;100.00;57697.75;4998967;28;19974;-61
2022/08/27 02:54:20;;;;;;;;;;;;;;;-155.54;100.00;57697.75;5000183;28;19997;-61
2022/08/27 02:56:46;;;;;;;;;;;;;;;-155.54;100.00;57697.75;5002333;28;20369;-62
2022/08/27 02:59:11;;;;;;;;;;;;;;;-155.54;100.00;57697.75;5000093;28;19996;-61
2022/08/27 03:01:36;;;;;;;;;;;;;;;-155.54;100.00;57697.75;5002245;28;20027;-61
2022/08/27 03:04:01;;;;;;;;;;;;;;;-155.54;100.00;57697.75;4997191;28;20038;-61
2022/08/27 03:06:27;;;;;;;;;;;;;;;-155.54;100.00;57697.75;5002018;28;19994;-61
2022/08/27 03:08:52;;;;;;;;;;;;;;;-155.54;100.00;57697.75;4999758;28;19988;-62
2022/08/27 03:11:17;;;;;;;;;;;;;;;-155.54;100.00;57697.75;5000963;28;20514;-62
2022/08/27 03:13:42;;;;;;;;;;;;;;;-155.54;100.00;57697.75;4999548;28;20003;-61
2022/08/27 03:16:08;;;;;;;;;;;;;;;-155.54;100.00;57697.75;5000339;28;20032;-62
2022/08/27 03:18:33;;;;;;;;;;;;;;;-155.54;100.00;57697.75;5001412;28;20056;-62
2022/08/27 03:20:59;;;;;;;;;;;;;;;-155.54;100.00;57697.75;5001197;28;19997;-62
2022/08/27 03:23:25;;;;;;;;;;;;;;;-155.54;100.00;57697.75;4980925;28;20382;-63
2022/08/27 03:25:52;;;;;;;;;;;;;;;-155.54;100.00;57697.75;4996251;28;20247;-63
2022/08/27 03:28:20;;;;;;;;;;;;;;;-155.54;100.00;57697.75;5000416;28;20004;-63
2022/08/27 03:30:50;;;;;;;;;;;;;;;-155.54;100.00;57697.75;4997742;28;20401;-63
2022/08/27 03:33:16;;;;;;;;;;;;;;;-155.54;100.00;57697.75;4998822;28;20004;-63
2022/08/27 03:35:42;;;;;;;;;;;;;;;-155.54;100.00;57697.75;4999736;28;19969;-61
2022/08/27 03:38:07;;;;;;;;;;;;;;;-155.54;100.00;57697.75;4996994;28;19996;-62
2022/08/27 03:40:32;;;;;;;;;;;;;;;-155.54;100.00;57697.75;4998738;28;19974;-63
2022/08/27 03:42:57;;;;;;;;;;;;;;;-155.54;100.00;57697.75;4996889;28;20496;-63
2022/08/27 03:45:23;;;;;;;;;;;;;;;-155.54;100.00;57697.75;5000278;28;20029;-63
2022/08/27 03:47:49;;;;;;;;;;;;;;;-155.54;100.00;57697.75;4997993;28;20021;-62
2022/08/27 03:50:14;;;;;;;;;;;;;;;-155.54;100.00;57697.75;5001601;28;19992;-61
2022/08/27 03:52:40;;;;;;;;;;;;;;;-155.54;100.00;57697.75;5000657;28;20515;-62
2022/08/27 03:55:06;;;;;;;;;;;;;;;-155.54;100.00;57697.75;4997151;28;20056;-62
2022/08/27 03:57:31;;;;;;;;;;;;;;;-155.54;100.00;57697.75;5000680;28;20466;-63
2022/08/27 03:59:57;;;;;;;;;;;;;;;-155.54;100.00;57697.75;4997252;28;20065;-62
2022/08/27 04:02:22;;;;;;;;;;;;;;;-155.54;100.00;57697.75;4994743;28;20518;-63
2022/08/27 04:04:47;;;;;;;;;;;;;;;-155.54;100.00;57697.75;5001821;28;19978;-62
2022/08/27 04:07:12;;;;;;;;;;;;;;;-155.54;100.00;57697.75;4997886;28;20475;-63
2022/08/27 04:09:38;;;;;;;;;;;;;;;-155.54;100.00;57697.75;4999967;28;20793;-61
2022/08/27 04:12:03;;;;;;;;;;;;;;;-155.54;100.00;57697.75;4996871;28;20450;-62
2022/08/27 04:14:29;;;;;;;;;;;;;;;-155.54;100.00;57697.75;5000687;28;20147;-62
2022/08/27 04:16:54;;;;;;;;;;;;;;;-155.54;100.00;57697.75;4999932;28;19981;-63
2022/08/27 04:19:20;;;;;;;;;;;;;;;-155.54;100.00;57697.75;4998551;28;20086;-63
2022/08/27 04:21:45;;;;;;;;;;;;;;;-155.54;100.00;57697.75;4999091;28;20103;-63
2022/08/27 04:24:10;;;;;;;;;;;;;;;-155.54;100.00;57697.75;4995793;28;20482;-61
2022/08/27 04:26:38;;;;;;;;;;;;;;;-155.54;100.00;57697.75;5001216;28;20040;-61
2022/08/27 04:29:03;;;;;;;;;;;;;;;-155.54;100.00;57697.75;5002239;28;20406;-62
2022/08/27 04:31:29;;;;;;;;;;;;;;;-155.54;100.00;57697.75;5002040;28;19996;-64
2022/08/27 04:33:54;;;;;;;;;;;;;;;-155.54;100.00;57697.75;5002053;28;19947;-63
2022/08/27 04:36:20;;;;;;;;;;;;;;;-155.54;100.00;57697.75;5003299;28;19917;-62
2022/08/27 04:38:45;;;;;;;;;;;;;;;-155.54;100.00;57697.75;5000262;28;19983;-60
2022/08/27 04:41:20;;;;;;;;;;;;;;;-155.54;100.00;57697.75;5002691;28;19957;-62
2022/08/27 04:43:46;;;;;;;;;;;;;;;-155.54;100.00;57697.75;4982412;28;20444;-61
2022/08/27 04:46:11;;;;;;;;;;;;;;;-155.54;100.00;57697.75;5002426;28;19925;-61
2022/08/27 04:48:36;;;;;;;;;;;;;;;-155.54;100.00;57697.75;5003614;28;19924;-61
2022/08/27 04:51:02;;;;;;;;;;;;;;;-155.54;100.00;57697.75;5003594;28;19963;-62
2022/08/27 04:53:27;;;;;;;;;;;;;;;-155.54;100.00;57697.75;4999669;28;19922;-61
2022/08/27 04:55:53;;;;;;;;;;;;;;;-155.54;100.00;57697.75;5005179;28;20045;-62
2022/08/27 04:58:19;;;;;;;;;;;;;;;-155.54;100.00;57697.75;5003326;28;19993;-63
2022/08/27 05:00:48;;;;;;;;;;;;;;;-155.54;100.00;57697.75;5004320;28;20209;-62
2022/08/27 05:03:14;;;;;;;;;;;;;;;-155.54;100.00;57697.75;5000950;28;20047;-63
2022/08/27 05:05:40;;;;;;;;;;;;;;;-155.54;100.00;57697.75;4986475;28;20002;-61
2022/08/27 05:08:05;;;;;;;;;;;;;;;-155.54;100.00;57697.75;5002156;28;20441;-61
2022/08/27 05:10:36;;;;;;;;;;;;;;;-155.54;100.00;57697.75;5001456;28;20095;-61
2022/08/27 05:13:02;;;;;;;;;;;;;;;-155.54;100.00;57697.75;4983721;28;20006;-61
2022/08/27 05:15:27;;;;;;;;;;;;;;;-155.54;100.00;57697.75;5003294;28;20059;-61
2022/08/27 05:17:53;;;;;;;;;;;;;;;-155.54;100.00;57697.75;5000553;28;20462;-62
2022/08/27 05:20:18;;;;;;;;;;;;;;;-155.54;100.00;57697.75;5004419;28;20352;-62
2022/08/27 05:22:45;;;;;;;;;;;;;;;-155.54;100.00;57697.75;5000616;28;20028;-63
2022/08/27 05:25:10;;;;;;;;;;;;;;;-155.54;100.00;57697.75;5000372;28;19993;-63
2022/08/27 05:27:36;;;;;;;;;;;;;;;-155.54;100.00;57697.75;5002047;28;20018;-60
2022/08/27 05:30:01;;;;;;;;;;;;;;;-155.54;100.00;57697.75;5000715;28;20090;-62
2022/08/27 05:32:26;;;;;;;;;;;;;;;-155.54;100.00;57697.75;4998588;28;20607;-63
2022/08/27 05:34:51;;;;;;;;;;;;;;;-155.54;100.00;57697.75;5000510;28;20418;-63
2022/08/27 05:37:17;;;;;;;;;;;;;;;-155.54;100.00;57697.75;5001144;28;20036;-63
2022/08/27 05:39:42;;;;;;;;;;;;;;;-155.54;100.00;57697.75;5002257;28;20043;-63
2022/08/27 05:42:07;;;;;;;;;;;;;;;-155.54;100.00;57697.75;4998182;28;20513;-64
2022/08/27 05:44:32;;;;;;;;;;;;;;;-155.54;100.00;57697.75;4998702;28;20040;-61
2022/08/27 05:46:58;;;;;;;;;;;;;;;-155.54;100.00;57697.75;5003506;28;20001;-61
2022/08/27 05:49:23;;;;;;;;;;;;;;;-155.54;100.00;57697.75;5002454;28;19929;-62
2022/08/27 05:51:48;;;;;;;;;;;;;;;-155.54;100.00;57697.75;5002117;28;19933;-61
2022/08/27 05:54:18;;;;;;;;;;;;;;;-155.54;100.00;57697.75;4999393;28;20036;-63
2022/08/27 05:56:43;;;;;;;;;;;;;;;-155.54;100.00;57697.75;4995077;28;19921;-62
2022/08/27 06:01:53;;;;;;;;;;;;;;;-155.54;100.00;57697.75;5002537;28;19945;-61
2022/08/27 06:04:19;;;;;;;;;;;;;;;-155.54;100.00;57697.75;5002827;28;19922;-61
2022/08/27 06:06:44;;;;;;;;;;;;;;;-155.54;100.00;57697.75;4985938;28;20346;-61
2022/08/27 06:09:10;;;;;;;;;;;;;;;-155.54;100.00;57697.75;5002688;28;19960;-62
2022/08/27 06:11:36;;;;;;;;;;;;;;;-155.54;100.00;57697.75;4997146;28;19913;-61
2022/08/27 06:14:01;;;;;;;;;;;;;;;-155.54;100.00;57697.75;5000450;28;19998;-62
2022/08/27 06:16:26;;;;;;;;;;;;;;;-155.54;100.00;57697.75;5002157;28;20354;-62
2022/08/27 06:18:52;;;;;;;;;;;;;;;-155.54;100.00;57697.75;5001855;28;19925;-62
2022/08/27 06:21:18;;;;;;;;;;;;;;;-155.54;100.00;57697.75;5000660;28;19997;-61
2022/08/27 06:23:43;;;;;;;;;;;;;;;-155.54;100.00;57697.75;4999056;28;20001;-62
2022/08/27 06:26:10;;;;;;;;;;;;;;;-155.54;100.00;57697.75;5001758;28;19990;-63
2022/08/27 06:28:35;;;;;;;;;;;;;;;-155.54;100.00;57697.75;4981873;28;19985;-61
2022/08/27 06:31:01;;;;;;;;;;;;;;;-155.54;100.00;57697.75;4987614;28;19922;-61
2022/08/27 06:33:26;;;;;;;;;;;;;;;-155.54;100.00;57697.75;5000819;28;20137;-62
2022/08/27 06:35:52;;;;;;;;;;;;;;;-155.54;100.00;57697.75;4999536;28;20019;-61
2022/08/27 06:38:17;;;;;;;;;;;;;;;-155.54;100.00;57697.75;4997866;28;20342;-71
2022/08/27 06:40:42;;;;;;;;;;;;;;;-155.54;100.00;57697.75;4997575;28;20107;-71
2022/08/27 06:43:07;;;;;;;;;;;;;;;-155.54;100.00;57697.75;4982065;28;20020;-71
2022/08/27 06:45:36;;;;;;;;;;;;;;;-155.54;100.00;57697.75;5001105;28;19940;-71
2022/08/27 06:48:01;;;;;;;;;;;;;;;-155.54;100.00;57697.75;5001668;28;20008;-71
2022/08/27 06:50:26;;;;;;;;;;;;;;;-155.54;100.00;57697.75;5001409;28;20059;-71
2022/08/27 06:52:51;;;;;;;;;;;;;;;-155.54;100.00;57697.75;4998618;28;20374;-72
2022/08/27 06:55:17;;;;;;;;;;;;;;;-155.54;100.00;57697.75;4997988;28;19944;-72
2022/08/27 06:57:42;;;;;;;;;;;;;;;-155.54;100.00;57697.75;5001357;28;19961;-72
2022/08/27 07:00:09;;;;;;;;;;;;;;;-155.54;100.00;57697.75;4999939;28;20421;-72
2022/08/27 07:02:35;;;;;;;;;;;;;;;-155.54;100.00;57697.75;4999273;28;20457;-71
2022/08/27 07:05:00;;;;;;;;;;;;;;;-155.54;100.00;57697.75;4999307;28;20152;-72
2022/08/27 07:07:26;;;;;;;;;;;;;;;-155.54;100.00;57697.75;4982825;28;20397;-70
2022/08/27 07:09:51;;;;;;;;;;;;;;;-155.54;100.00;57697.75;5000612;28;19929;-71
2022/08/27 07:12:16;;;;;;;;;;;;;;;-155.54;100.00;57697.75;4999475;28;19975;-71
2022/08/27 07:14:42;;;;;;;;;;;;;;;-155.54;100.00;57697.75;5000395;28;19969;-71
2022/08/27 07:17:07;;;;;;;;;;;;;;;-155.54;100.00;57697.75;4977929;28;20341;-71
2022/08/27 07:19:33;;;;;;;;;;;;;;;-155.54;100.00;57697.75;5000431;28;19921;-71
2022/08/27 07:21:58;;;;;;;;;;;;;;;-155.54;100.00;57697.75;4997240;28;19925;-71
2022/08/27 07:24:23;;;;;;;;;;;;;;;-155.54;100.00;57697.75;4999122;28;20163;-71
2022/08/27 07:26:48;;;;;;;;;;;;;;;-155.54;100.00;57697.75;5001985;28;20193;-71
2022/08/27 07:29:14;;;;;;;;;;;;;;;-155.54;100.00;57697.75;4999205;28;19980;-71
2022/08/27 07:31:39;;;;;;;;;;;;;;;-155.54;100.00;57697.75;4996519;28;19921;-71
2022/08/27 07:34:04;;;;;;;;;;;;;;;-155.54;100.00;57697.75;4999078;28;19921;-72
2022/08/27 07:36:29;;;;;;;;;;;;;;;-155.54;100.00;57697.75;5001397;28;19929;-71
2022/08/27 07:38:55;;;;;;;;;;;;;;;-155.54;100.00;57697.75;5001809;28;20429;-71
2022/08/27 07:41:20;;;;;;;;;;;;;;;-155.54;100.00;57697.75;4999141;28;20382;-71
2022/08/27 07:46:29;;;;;;;;;;;;;;;-155.54;100.00;57697.75;4999838;28;20405;-72
2022/08/27 07:48:56;;;;;;;;;;;;;;;-155.54;100.00;57697.75;5000719;28;19921;-71
2022/08/27 07:51:21;;;;;;;;;;;;;;;-155.54;100.00;57697.75;4999430;28;19968;-71
2022/08/27 07:53:46;;;;;;;;;;;;;;;-155.54;100.00;57697.75;4997717;28;19921;-71
2022/08/27 07:56:11;;;;;;;;;;;;;;;-155.54;100.00;57697.75;5001531;28;19914;-72
2022/08/27 07:58:37;;;;;;;;;;;;;;;-155.54;100.00;57697.75;4983369;28;19959;-72
2022/08/27 08:01:02;;;;;;;;;;;;;;;-155.54;100.00;57697.75;4982348;28;19914;-72
2022/08/27 08:03:28;;;;;;;;;;;;;;;-155.54;100.00;57697.75;4983985;28;19948;-71
2022/08/27 08:05:53;;;;;;;;;;;;;;;-155.54;100.00;57697.75;4999809;28;20377;-72
2022/08/27 08:08:19;;;;;;;;;;;;;;;-155.54;100.00;57697.75;5001234;28;19917;-71
2022/08/27 08:10:44;;;;;;;;;;;;;;;-155.54;100.00;57697.75;4970885;28;19933;-72
2022/08/27 08:13:09;;;;;;;;;;;;;;;-155.54;100.00;57697.75;4982549;28;19921;-72
2022/08/27 08:15:35;;;;;;;;;;;;;;;-155.54;100.00;57697.75;4980974;28;20069;-72
2022/08/27 08:18:00;;;;;;;;;;;;;;;-155.54;100.00;57697.75;4981208;28;20537;-72
2022/08/27 08:20:25;;;;;;;;;;;;;;;-155.54;100.00;57697.75;4996296;28;19986;-71
2022/08/27 08:22:50;;;;;;;;;;;;;;;-155.54;100.00;57697.75;4982084;28;20092;-72
2022/08/27 08:25:16;;;;;;;;;;;;;;;-155.54;100.00;57697.75;4978386;28;19968;-72
2022/08/27 08:27:41;;;;;;;;;;;;;;;-155.54;100.00;57697.75;5000215;28;19913;-72
2022/08/27 08:30:07;;;;;;;;;;;;;;;-155.54;100.00;57697.75;4977691;28;19929;-71
2022/08/27 08:32:32;;;;;;;;;;;;;;;-155.54;100.00;57697.75;5001188;28;19917;-71
2022/08/27 08:34:58;;;;;;;;;;;;;;;-155.54;100.00;57697.75;4999378;28;19921;-71
2022/08/27 08:37:24;;;;;;;;;;;;;;;-155.54;100.00;57697.75;4999732;28;19925;-72
2022/08/27 08:39:49;;;;;;;;;;;;;;;-155.54;100.00;57697.75;4980757;28;19984;-72
2022/08/27 08:42:34;;;;;;;;;;;;;;;-155.54;100.00;57697.75;4999778;28;19994;-71
2022/08/27 08:45:00;;;;;;;;;;;;;;;-155.54;100.00;57697.75;4997162;28;20389;-71
2022/08/27 08:47:26;;;;;;;;;;;;;;;-155.54;100.00;57697.75;4999975;28;19965;-71
2022/08/27 08:49:54;;;;;;;;;;;;;;;-155.54;100.00;57697.75;4997269;28;19957;-71
2022/08/27 08:52:20;;;;;;;;;;;;;;;-155.54;100.00;57697.75;4999212;28;20355;-71
2022/08/27 08:54:45;;;;;;;;;;;;;;;-155.54;100.00;57697.75;4993608;28;20419;-71
2022/08/27 08:57:21;;;;;;;;;;;;;;;-155.54;100.00;57697.75;4981194;28;19993;-71
2022/08/27 08:59:50;;;;;;;;;;;;;;;-155.54;100.00;57697.75;4979999;28;20320;-72
2022/08/27 09:02:15;;;;;;;;;;;;;;;-155.54;100.00;57697.75;4981250;28;19998;-72
2022/08/27 09:04:41;;;;;;;;;;;;;;;-155.54;100.00;57697.75;4998339;28;20266;-72
2022/08/27 09:07:14;;;;;;;;;;;;;;;-155.54;100.00;57697.75;4998626;28;19993;-72
2022/08/27 09:09:49;;;;;;;;;;;;;;;-155.54;100.00;57697.75;4995028;28;19993;-72
2022/08/27 09:12:18;;;;;;;;;;;;;;;-155.54;100.00;57697.75;5000053;28;19998;-72
2022/08/27 09:14:47;;;;;;;;;;;;;;;-155.54;100.00;57697.75;5004134;28;19926;-72
2022/08/27 09:17:12;;;;;;;;;;;;;;;-155.54;100.00;57697.75;5001719;28;20225;-72
2022/08/27 09:19:37;;;;;;;;;;;;;;;-155.54;100.00;57697.75;5003417;28;19985;-72
2022/08/27 09:22:12;;;;;;;;;;;;;;;-155.54;100.00;57697.75;5001719;28;20180;-72
2022/08/27 09:24:37;;;;;;;;;;;;;;;-155.54;100.00;57697.75;5002087;28;20016;-71
2022/08/27 09:27:02;;;;;;;;;;;;;;;-155.54;100.00;57697.75;5002488;28;20351;-72
2022/08/27 09:29:28;;;;;;;;;;;;;;;-155.54;100.00;57697.75;4984311;28;20364;-72
2022/08/27 09:31:57;;;;;;;;;;;;;;;-155.54;100.00;57697.75;5001861;28;19970;-72
2022/08/27 09:34:23;;;;;;;;;;;;;;;-155.54;100.00;57697.75;5003685;28;20513;-71
2022/08/27 09:36:53;;;;;;;;;;;;;;;-155.54;100.00;57697.75;5001775;28;20277;-71
2022/08/27 09:39:18;;;;;;;;;;;;;;;-155.54;100.00;57697.75;4984969;28;20540;-72
2022/08/27 09:41:44;;;;;;;;;;;;;;;-155.54;100.00;57697.75;5001223;28;19937;-72
2022/08/27 09:44:10;;;;;;;;;;;;;;;-155.54;100.00;57697.75;5002460;28;20671;-72
2022/08/27 09:46:36;;;;;;;;;;;;;;;-155.54;100.00;57697.75;5003249;28;20007;-71
2022/08/27 09:49:13;;;;;;;;;;;;;;;-155.54;100.00;57697.75;4985478;28;19963;-72
2022/08/27 09:51:41;;;;;;;;;;;;;;;-155.54;100.00;57697.75;5001739;28;19971;-72
2022/08/27 09:54:07;;;;;;;;;;;;;;;-155.54;100.00;57697.75;4983753;28;19986;-72
2022/08/27 09:56:39;;;;;;;;;;;;;;;-155.54;100.00;57697.75;5002392;28;20827;-72
2022/08/27 09:59:05;;;;;;;;;;;;;;;-155.54;100.00;57697.75;5001818;28;20278;-71
2022/08/27 10:01:31;;;;;;;;;;;;;;;-155.54;100.00;57697.75;5001870;28;19994;-72
2022/08/27 10:04:09;;;;;;;;;;;;;;;-155.54;100.00;57697.75;5001157;28;20421;-71
2022/08/27 10:06:36;;;;;;;;;;;;;;;-155.54;100.00;57697.75;5000121;28;19997;-71
2022/08/27 10:09:07;;;;;;;;;;;;;;;-155.54;100.00;57697.75;4999317;28;20002;-71
2022/08/27 10:11:47;;;;;;;;;;;;;;;-155.54;100.00;57697.75;4983933;28;19966;-71
2022/08/27 10:14:15;;;;;;;;;;;;;;;-155.54;100.00;57697.75;4981106;28;20054;-72
2022/08/27 10:16:51;;;;;;;;;;;;;;;-155.54;100.00;57697.75;5002517;28;20071;-72
2022/08/27 10:19:16;;;;;;;;;;;;;;;-155.54;100.00;57697.75;4984980;28;20199;-72
2022/08/27 10:21:57;;;;;;;;;;;;;;;-155.54;100.00;57697.75;5002787;28;19987;-72
2022/08/27 10:24:38;;;;;;;;;;;;;;;-155.54;100.00;57697.75;4981070;28;20052;-72
2022/08/27 10:27:15;;;;;;;;;;;;;;;-155.54;100.00;57697.75;4999363;28;19994;-73
2022/08/27 10:29:56;;;;;;;;;;;;;;;-155.54;100.00;57697.75;4999075;28;20045;-73
2022/08/27 10:32:24;;;;;;;;;;;;;;;-155.54;100.00;57697.75;5003025;28;20459;-73
2022/08/27 10:34:49;;;;;;;;;;;;;;;-155.54;100.00;57697.75;5002490;28;19984;-73
2022/08/27 10:37:14;;;;;;;;;;;;;;;-155.54;100.00;57697.75;5002383;28;20432;-72
2022/08/27 10:39:45;;;;;;;;;;;;;;;-155.54;100.00;57697.75;5001543;28;20671;-72
2022/08/27 10:42:17;;;;;;;;;;;;;;;-155.54;100.00;57697.75;5001919;28;20151;-72
2022/08/27 10:45:03;;;;;;;;;;;;;;;-155.54;100.00;57697.75;5000492;28;20130;-73
2022/08/27 10:48:04;;;;;;;;;;;;;;;-155.54;100.00;57697.75;4983517;28;20525;-71
2022/08/27 10:50:29;;;;;;;;;;;;;;;-155.54;100.00;57697.75;4943102;28;20017;-72
2022/08/27 10:52:59;;;;;;;;;;;;;;;-155.54;100.00;57697.75;4988125;28;20274;-71
2022/08/27 10:55:29;;;;;;;;;;;;;;;-155.54;100.00;57697.75;4997924;28;20473;-71
2022/08/27 10:58:13;;;;;;;;;;;;;;;-155.54;100.00;57697.75;4982685;28;20070;-71
2022/08/27 11:00:43;;;;;;;;;;;;;;;-155.54;100.00;57697.75;4997046;28;20359;-72
2022/08/27 11:03:09;;;;;;;;;;;;;;;-155.54;100.00;57697.75;4997436;28;20468;-71
2022/08/27 11:05:40;;;;;;;;;;;;;;;-155.54;100.00;57697.75;4977355;28;19988;-71
2022/08/27 11:08:14;;;;;;;;;;;;;;;-155.54;100.00;57697.75;4997429;28;19962;-72
2022/08/27 11:10:53;;;;;;;;;;;;;;;-155.54;100.00;57697.75;4999279;28;20340;-71
2022/08/27 11:13:30;;;;;;;;;;;;;;;-155.54;100.00;57697.75;4981450;28;19990;-71
2022/08/27 11:15:55;;;;;;;;;;;;;;;-155.54;100.00;57697.75;4979555;28;20409;-71
2022/08/27 11:18:50;;;;;;;;;;;;;;;-155.54;100.00;57697.75;4981935;28;20031;-71
2022/08/27 11:21:18;;;;;;;;;;;;;;;-155.54;100.00;57697.75;4983495;28;19987;-72
2022/08/27 11:23:45;;;;;;;;;;;;;;;-155.54;100.00;57697.75;4996848;28;19982;-72
2022/08/27 11:26:11;;;;;;;;;;;;;;;-155.54;100.00;57697.75;5001861;28;19992;-72
2022/08/27 11:28:38;;;;;;;;;;;;;;;-155.54;100.00;57697.75;4998963;28;19976;-71
2022/08/27 11:31:22;;;;;;;;;;;;;;;-155.54;100.00;57697.75;4982546;28;19986;-72
2022/08/27 11:33:53;;;;;;;;;;;;;;;-155.54;100.00;57697.75;4999366;28;20013;-72
2022/08/27 11:36:28;;;;;;;;;;;;;;;-155.54;100.00;57697.75;4984974;28;20352;-72
2022/08/27 11:39:12;;;;;;;;;;;;;;;-155.54;100.00;57697.75;4993611;28;20016;-72
2022/08/27 11:41:49;;;;;;;;;;;;;;;-155.54;100.00;57697.75;4999812;28;19989;-72
2022/08/27 11:44:15;;;;;;;;;;;;;;;-155.54;100.00;57697.75;4983496;28;19981;-72
2022/08/27 11:46:44;;;;;;;;;;;;;;;-155.54;100.00;57697.75;4981418;28;20001;-72
2022/08/27 11:49:09;;;;;;;;;;;;;;;-155.54;100.00;57697.75;5000449;28;20442;-72
2022/08/27 11:51:35;;;;;;;;;;;;;;;-155.54;100.00;57697.75;4998793;28;20270;-72
2022/08/27 11:54:26;;;;;;;;;;;;;;;-155.54;100.00;57697.75;4999069;28;20085;-72
2022/08/27 11:56:51;;;;;;;;;;;;;;;-155.54;100.00;57697.75;4981915;28;20058;-72
2022/08/27 11:59:25;;;;;;;;;;;;;;;-155.54;100.00;57697.75;4997117;28;20050;-71
2022/08/27 12:01:52;;;;;;;;;;;;;;;-155.54;100.00;57697.75;4998308;28;19990;-71
2022/08/27 12:04:29;;;;;;;;;;;;;;;-155.54;100.00;57697.75;4981620;28;19988;-71
2022/08/27 12:07:03;;;;;;;;;;;;;;;-155.54;100.00;57697.75;5001022;28;19999;-71
2022/08/27 12:09:28;;;;;;;;;;;;;;;-155.54;100.00;57697.75;5000147;28;20453;-72
2022/08/27 12:11:53;;;;;;;;;;;;;;;-155.54;100.00;57697.75;5000263;28;20175;-71
2022/08/27 12:14:18;;;;;;;;;;;;;;;-155.54;100.00;57697.75;4998918;28;19989;-71
2022/08/27 12:16:56;;;;;;;;;;;;;;;-155.54;100.00;57697.75;5000279;28;20297;-72
2022/08/27 12:19:25;;;;;;;;;;;;;;;-155.54;100.00;57697.75;4980911;28;19998;-71
2022/08/27 12:22:05;;;;;;;;;;;;;;;-155.54;100.00;57697.75;4982656;28;19987;-71
2022/08/27 12:24:36;;;;;;;;;;;;;;;-155.54;100.00;57697.75;4998690;28;20509;-71